createdAt,value
2023-10-10T00:00:29.458Z,11.8
2023-10-10T00:05:33.176Z,11.7
2023-10-10T00:10:22.182Z,11.7
2023-10-10T00:15:28.212Z,11.7
2023-10-10T00:20:34.210Z,11.7
2023-10-10T00:25:23.210Z,11.5
2023-10-10T00:30:29.337Z,11.5
2023-10-10T00:35:18.463Z,11.4
2023-10-10T00:40:25.339Z,11.4
2023-10-10T00:45:30.574Z,11.4
2023-10-10T00:50:18.879Z,11.4
2023-10-10T00:55:24.687Z,11.3
2023-10-10T01:00:30.764Z,11.2
2023-10-10T01:05:20.111Z,11.1
2023-10-10T01:10:25.868Z,10.9
2023-10-10T01:15:32.894Z,10.8
2023-10-10T01:20:21.540Z,10.8
2023-10-10T01:25:27.221Z,10.6
2023-10-10T01:30:32.905Z,10.6
2023-10-10T01:35:22.114Z,10.5
2023-10-10T01:40:28.877Z,10.3
2023-10-10T01:45:18.337Z,10.2
2023-10-10T01:50:23.053Z,10.1
2023-10-10T01:55:28.980Z,10.1
2023-10-10T02:00:18.607Z,10.1
2023-10-10T02:05:24.096Z,10.1
2023-10-10T02:10:30.102Z,10.2
2023-10-10T02:15:19.000Z,10.2
2023-10-10T02:20:25.629Z,10.2
2023-10-10T02:25:31.167Z,10.1
2023-10-10T02:30:20.211Z,10.1
2023-10-10T02:35:26.405Z,10.1
2023-10-10T02:40:32.315Z,10.1
2023-10-10T02:45:21.425Z,10.1
2023-10-10T02:50:26.742Z,10.0
2023-10-10T02:55:32.546Z,10.0
2023-10-10T03:00:21.677Z,10.0
2023-10-10T03:05:27.659Z,10.0
2023-10-10T03:10:33.992Z,9.9
2023-10-10T03:15:22.886Z,9.8
2023-10-10T03:20:28.845Z,9.7
2023-10-10T03:25:17.760Z,9.6
2023-10-10T03:30:23.872Z,9.6
2023-10-10T03:35:30.020Z,9.4
2023-10-10T03:40:19.707Z,9.3
2023-10-10T03:45:25.120Z,9.3
2023-10-10T03:50:31.246Z,9.2
2023-10-10T03:55:20.171Z,9.2
2023-10-10T04:00:27.205Z,9.1
2023-10-10T04:05:32.164Z,9.2
2023-10-10T04:10:21.057Z,9.1
2023-10-10T04:15:27.232Z,9.0
2023-10-10T04:20:33.417Z,9.0
2023-10-10T04:25:22.129Z,9.1
2023-10-10T04:30:28.234Z,9.0
2023-10-10T04:35:34.293Z,8.8
2023-10-10T04:40:23.440Z,8.7
2023-10-10T04:45:29.401Z,8.6
2023-10-10T04:50:17.891Z,8.6
2023-10-10T04:55:24.428Z,8.5
2023-10-10T05:00:29.732Z,8.4
2023-10-10T05:05:19.186Z,8.3
2023-10-10T05:10:25.247Z,8.2
2023-10-10T05:15:31.387Z,8.2
2023-10-10T05:20:20.441Z,8.0
2023-10-10T05:25:26.579Z,8.0
2023-10-10T05:30:32.531Z,8.0
2023-10-10T05:35:21.557Z,7.9
2023-10-10T05:40:28.331Z,7.8
2023-10-10T05:45:33.612Z,7.9
2023-10-10T05:50:22.070Z,7.9
2023-10-10T05:55:28.113Z,7.9
2023-10-10T06:00:34.226Z,8.0
2023-10-10T06:05:22.500Z,8.1
2023-10-10T06:10:28.697Z,8.3
2023-10-10T06:15:17.707Z,8.3
2023-10-10T06:20:23.847Z,8.4
2023-10-10T06:25:29.771Z,8.6
2023-10-10T06:30:18.968Z,8.8
2023-10-10T06:35:24.914Z,8.9
2023-10-10T06:40:31.021Z,9.0
2023-10-10T06:45:20.056Z,9.2
2023-10-10T06:50:25.418Z,9.5
2023-10-10T06:55:31.652Z,9.7
2023-10-10T07:00:20.717Z,9.8
2023-10-10T07:05:27.098Z,10.1
2023-10-10T07:10:32.970Z,10.2
2023-10-10T07:15:22.302Z,10.3
2023-10-10T07:20:28.330Z,10.5
2023-10-10T07:25:34.228Z,11.0
2023-10-10T07:30:23.196Z,11.2
2023-10-10T07:35:29.364Z,11.3
2023-10-10T07:40:19.331Z,11.4
2023-10-10T07:45:24.554Z,11.7
2023-10-10T07:50:29.802Z,11.9
2023-10-10T07:55:18.882Z,12.0
2023-10-10T08:00:25.470Z,12.0
2023-10-10T08:05:32.127Z,12.2
2023-10-10T08:10:20.288Z,12.7
2023-10-10T08:15:26.817Z,12.8
2023-10-10T08:20:32.562Z,13.0
2023-10-10T08:25:21.453Z,13.3
2023-10-10T08:30:27.603Z,13.6
2023-10-10T08:35:33.681Z,13.9
2023-10-10T08:40:22.711Z,14.4
2023-10-10T08:45:28.692Z,14.9
2023-10-10T08:50:34.247Z,15.2
2023-10-10T08:55:23.210Z,15.4
2023-10-10T09:00:29.396Z,15.4
2023-10-10T09:05:17.713Z,15.7
2023-10-10T09:10:23.767Z,16.0
2023-10-10T09:15:29.978Z,16.3
2023-10-10T09:20:19.379Z,16.6
2023-10-10T09:25:24.928Z,16.8
2023-10-10T09:30:30.955Z,16.4
2023-10-10T09:35:20.105Z,16.3
2023-10-10T09:40:26.690Z,16.3
2023-10-10T09:45:32.135Z,16.1
2023-10-10T09:50:20.804Z,16.7
2023-10-10T09:55:26.820Z,17.1
2023-10-10T10:00:33.702Z,17.3
2023-10-10T10:05:22.286Z,17.3
2023-10-10T10:10:28.314Z,17.4
2023-10-10T10:15:34.343Z,17.8
2023-10-10T10:20:23.479Z,18.1
2023-10-10T10:25:29.380Z,17.9
2023-10-10T10:30:18.333Z,18.2
2023-10-10T10:35:24.515Z,18.5
2023-10-10T10:40:30.447Z,18.3
2023-10-10T10:45:20.612Z,18.2
2023-10-10T10:50:25.006Z,18.5
2023-10-10T10:55:31.088Z,18.6
2023-10-10T11:00:20.177Z,18.8
2023-10-10T11:05:25.658Z,18.7
2023-10-10T11:10:31.764Z,18.8
2023-10-10T11:15:20.618Z,18.7
2023-10-10T11:20:27.420Z,19.0
2023-10-10T11:25:32.891Z,18.8
2023-10-10T11:30:22.061Z,19.0
2023-10-10T11:35:28.210Z,19.1
2023-10-10T11:40:33.963Z,19.5
2023-10-10T11:45:23.078Z,19.8
2023-10-10T11:50:29.640Z,19.9
2023-10-10T11:55:18.426Z,19.8
2023-10-10T12:00:27.940Z,19.9
2023-10-10T12:10:18.891Z,20.1
2023-10-10T12:15:25.025Z,20.6
2023-10-10T12:20:31.116Z,20.7
2023-10-10T12:25:20.179Z,21.1
2023-10-10T12:30:26.176Z,20.9
2023-10-10T12:35:32.392Z,21.0
2023-10-10T12:40:22.062Z,21.5
2023-10-10T12:45:27.334Z,21.2
2023-10-10T12:50:33.280Z,21.3
2023-10-10T12:55:22.386Z,21.4
2023-10-10T13:00:28.339Z,21.9
2023-10-10T13:05:34.356Z,21.7
2023-10-10T13:10:22.783Z,21.8
2023-10-10T13:15:28.804Z,21.8
2023-10-10T13:20:19.099Z,21.7
2023-10-10T13:25:23.987Z,22.1
2023-10-10T13:30:30.088Z,22.2
2023-10-10T13:35:19.034Z,22.3
2023-10-10T13:40:25.322Z,22.6
2023-10-10T13:45:31.153Z,22.5
2023-10-10T13:50:19.671Z,22.7
2023-10-10T13:55:25.853Z,22.6
2023-10-10T14:00:31.800Z,22.6
2023-10-10T14:05:21.224Z,22.7
2023-10-10T14:10:27.121Z,22.7
2023-10-10T14:15:33.239Z,22.8
2023-10-10T14:20:22.584Z,23.0
2023-10-10T14:25:28.375Z,22.8
2023-10-10T14:30:34.450Z,22.9
2023-10-10T14:35:23.321Z,23.2
2023-10-10T14:40:29.589Z,23.1
2023-10-10T14:45:18.482Z,22.9
2023-10-10T14:50:24.107Z,22.6
2023-10-10T14:55:30.161Z,22.8
2023-10-10T15:00:20.882Z,22.7
2023-10-10T15:05:25.275Z,22.9
2023-10-10T15:10:30.586Z,22.9
2023-10-10T15:15:19.945Z,22.5
2023-10-10T15:20:26.007Z,22.6
2023-10-10T15:25:31.852Z,22.9
2023-10-10T15:30:20.829Z,22.9
2023-10-10T15:35:26.909Z,22.4
2023-10-10T15:40:34.363Z,22.0
2023-10-10T15:45:22.066Z,21.3
2023-10-10T15:50:27.629Z,20.8
2023-10-10T15:55:33.653Z,20.1
2023-10-10T16:00:23.243Z,19.7
2023-10-10T16:05:29.474Z,19.7
2023-10-10T16:10:18.463Z,19.5
2023-10-10T16:15:30.918Z,19.0
2023-10-10T16:20:30.692Z,18.4
2023-10-10T16:25:19.669Z,18.1
2023-10-10T16:30:25.706Z,17.6
2023-10-10T16:35:31.996Z,17.3
2023-10-10T16:40:20.940Z,17.0
2023-10-10T16:45:27.082Z,16.8
2023-10-10T16:50:32.084Z,16.5
2023-10-10T16:55:21.033Z,16.1
2023-10-10T17:00:27.778Z,15.8
2023-10-10T17:05:32.721Z,15.5
2023-10-10T17:10:21.625Z,15.3
2023-10-10T17:15:27.635Z,15.1
2023-10-10T17:20:33.703Z,14.9
2023-10-10T17:25:22.818Z,14.7
2023-10-10T17:30:28.853Z,14.6
2023-10-10T17:35:17.827Z,14.4
2023-10-10T17:40:24.139Z,14.2
2023-10-10T17:45:30.158Z,14.1
2023-10-10T17:50:18.618Z,13.8
2023-10-10T17:55:24.630Z,13.6
2023-10-10T18:00:30.723Z,13.5
2023-10-10T18:05:19.915Z,13.3
2023-10-10T18:10:26.799Z,13.2
2023-10-10T18:15:32.138Z,13.0
2023-10-10T18:20:21.304Z,12.9
2023-10-10T18:25:27.289Z,12.8
2023-10-10T18:30:33.239Z,12.6
2023-10-10T18:35:22.355Z,12.5
2023-10-10T18:40:28.438Z,12.3
2023-10-10T18:45:34.618Z,12.2
2023-10-10T18:50:22.969Z,12.1
2023-10-10T18:55:28.941Z,11.9
2023-10-10T19:00:18.408Z,11.8
2023-10-10T19:05:24.434Z,11.7
2023-10-10T19:10:30.439Z,11.5
2023-10-10T19:15:19.454Z,11.3
2023-10-10T19:20:25.750Z,11.3
2023-10-10T19:25:31.586Z,11.2
2023-10-10T19:30:20.633Z,11.1
2023-10-10T19:35:26.848Z,11.1
2023-10-10T19:40:32.854Z,10.9
2023-10-10T19:45:25.747Z,10.8
2023-10-10T19:50:27.413Z,10.8
2023-10-10T19:55:33.587Z,10.7
2023-10-10T20:00:22.867Z,10.6
2023-10-10T20:05:27.998Z,10.5
2023-10-10T20:10:33.837Z,10.4
2023-10-10T20:15:22.981Z,10.3
2023-10-10T20:20:28.974Z,10.2
2023-10-10T20:25:18.009Z,10.1
2023-10-10T20:30:24.093Z,9.9
2023-10-10T20:35:30.347Z,9.9
2023-10-10T20:40:23.138Z,9.8
2023-10-10T20:45:25.374Z,9.7
2023-10-10T20:50:30.851Z,9.7
2023-10-10T20:55:19.804Z,9.7
2023-10-10T21:00:25.931Z,9.7
2023-10-10T21:05:31.999Z,9.7
2023-10-10T21:10:21.029Z,9.6
2023-10-10T21:15:27.138Z,9.5
2023-10-10T21:20:36.173Z,9.5
2023-10-10T21:25:22.251Z,9.4
2023-10-10T21:30:28.299Z,9.3
2023-10-10T21:35:34.368Z,9.3
2023-10-10T21:40:23.891Z,9.1
2023-10-10T21:45:29.457Z,9.1
2023-10-10T21:50:18.025Z,9.0
2023-10-10T21:55:24.041Z,9.0
2023-10-10T22:00:31.637Z,8.8
2023-10-10T22:05:18.814Z,8.8
2023-10-10T22:10:24.568Z,8.6
2023-10-10T22:15:30.623Z,8.6
2023-10-10T22:20:19.795Z,8.6
2023-10-10T22:25:25.971Z,8.5
2023-10-10T22:30:31.780Z,8.4
2023-10-10T22:35:20.939Z,8.5
2023-10-10T22:40:28.426Z,8.4
2023-10-10T22:45:33.103Z,8.3
2023-10-10T22:50:21.621Z,8.2
2023-10-10T22:55:27.710Z,8.2
2023-10-10T23:00:33.727Z,8.1
2023-10-10T23:05:22.984Z,8.0
2023-10-10T23:10:29.189Z,7.9
2023-10-10T23:15:18.246Z,7.9
2023-10-10T23:20:24.322Z,7.8
2023-10-10T23:25:30.352Z,7.8
2023-10-10T23:30:19.286Z,7.7
2023-10-10T23:35:25.360Z,7.6
2023-10-10T23:40:31.530Z,7.6
2023-10-10T23:45:20.746Z,7.5
2023-10-10T23:50:26.163Z,7.5
2023-10-10T23:55:32.292Z,7.4
